sensor_id;sensor_type;location;lat;lon;timestamp;pressure;altitude;pressure_sealevel;temperature;humidity
12178;BME280;6152;48.728;9.256;2024-01-11T00:00:51;97971.38;;;-4.74;100.00
12178;BME280;6152;48.728;9.256;2024-01-11T00:03:17;97970.44;;;-4.79;100.00
12178;BME280;6152;48.728;9.256;2024-01-11T00:05:44;97956.91;;;-4.81;100.00
12178;BME280;6152;48.728;9.256;2024-01-11T00:08:11;97956.03;;;-4.81;100.00
12178;BME280;6152;48.728;9.256;2024-01-11T00:10:37;97966.19;;;-4.81;100.00
12178;BME280;6152;48.728;9.256;2024-01-11T00:13:04;97961.09;;;-4.84;100.00
12178;BME280;6152;48.728;9.256;2024-01-11T00:15:30;97960.19;;;-4.88;100.00
12178;BME280;6152;48.728;9.256;2024-01-11T00:17:56;97961.88;;;-4.90;100.00
12178;BME280;6152;48.728;9.256;2024-01-11T00:20:22;97970.31;;;-4.91;100.00
12178;BME280;6152;48.728;9.256;2024-01-11T00:22:48;97966.88;;;-4.93;100.00
12178;BME280;6152;48.728;9.256;2024-01-11T00:25:14;97965.19;;;-4.94;100.00
12178;BME280;6152;48.728;9.256;2024-01-11T00:27:40;97973.63;;;-4.95;100.00
12178;BME280;6152;48.728;9.256;2024-01-11T00:30:07;97973.63;;;-4.95;100.00
12178;BME280;6152;48.728;9.256;2024-01-11T00:32:33;97978.66;;;-4.98;100.00
12178;BME280;6152;48.728;9.256;2024-01-11T00:34:59;97982.06;;;-4.97;100.00
12178;BME280;6152;48.728;9.256;2024-01-11T00:37:26;97980.41;;;-4.94;100.00
12178;BME280;6152;48.728;9.256;2024-01-11T00:39:52;97977.00;;;-4.96;100.00
12178;BME280;6152;48.728;9.256;2024-01-11T00:42:18;97980.38;;;-4.97;100.00
12178;BME280;6152;48.728;9.256;2024-01-11T00:44:44;97987.13;;;-4.96;100.00
12178;BME280;6152;48.728;9.256;2024-01-11T00:47:11;97977.00;;;-4.96;100.00
12178;BME280;6152;48.728;9.256;2024-01-11T00:49:37;97977.84;;;-4.95;100.00
12178;BME280;6152;48.728;9.256;2024-01-11T00:52:03;97976.22;;;-4.92;100.00
12178;BME280;6152;48.728;9.256;2024-01-11T00:54:29;97970.28;;;-4.94;100.00
12178;BME280;6152;48.728;9.256;2024-01-11T00:56:56;97974.44;;;-4.97;100.00
12178;BME280;6152;48.728;9.256;2024-01-11T00:59:22;97971.00;;;-5.01;100.00
12178;BME280;6152;48.728;9.256;2024-01-11T01:01:51;97975.19;;;-5.03;100.00
12178;BME280;6152;48.728;9.256;2024-01-11T01:04:17;97970.09;;;-5.06;100.00
12178;BME280;6152;48.728;9.256;2024-01-11T01:06:43;97974.31;;;-5.06;100.00
12178;BME280;6152;48.728;9.256;2024-01-11T01:09:09;97974.28;;;-5.08;100.00
12178;BME280;6152;48.728;9.256;2024-01-11T01:11:35;97984.41;;;-5.11;100.00
12178;BME280;6152;48.728;9.256;2024-01-11T01:14:01;97986.03;;;-5.13;100.00
12178;BME280;6152;48.728;9.256;2024-01-11T01:16:27;97991.97;;;-5.14;100.00
12178;BME280;6152;48.728;9.256;2024-01-11T01:18:54;97991.94;;;-5.16;100.00
12178;BME280;6152;48.728;9.256;2024-01-11T01:21:20;97992.78;;;-5.15;100.00
12178;BME280;6152;48.728;9.256;2024-01-11T01:23:46;97985.22;;;-5.12;100.00
12178;BME280;6152;48.728;9.256;2024-01-11T01:26:12;97981.81;;;-5.13;100.00
12178;BME280;6152;48.728;9.256;2024-01-11T01:28:38;97979.28;;;-5.14;100.00
12178;BME280;6152;48.728;9.256;2024-01-11T01:31:05;97975.94;;;-5.12;100.00
12178;BME280;6152;48.728;9.256;2024-01-11T01:33:32;97980.97;;;-5.15;100.00
12178;BME280;6152;48.728;9.256;2024-01-11T01:35:58;97981.78;;;-5.17;100.00
12178;BME280;6152;48.728;9.256;2024-01-11T01:38:24;97983.44;;;-5.19;100.00
12178;BME280;6152;48.728;9.256;2024-01-11T01:40:50;97989.31;;;-5.20;100.00
12178;BME280;6152;48.728;9.256;2024-01-11T01:43:16;97992.75;;;-5.18;100.00
12178;BME280;6152;48.728;9.256;2024-01-11T01:45:42;97996.16;;;-5.18;100.00
12178;BME280;6152;48.728;9.256;2024-01-11T01:48:09;98000.31;;;-5.21;100.00
12178;BME280;6152;48.728;9.256;2024-01-11T01:50:35;98007.03;;;-5.23;100.00
12178;BME280;6152;48.728;9.256;2024-01-11T01:53:01;98010.34;;;-5.27;100.00
12178;BME280;6152;48.728;9.256;2024-01-11T01:55:29;98010.34;;;-5.29;100.00
12178;BME280;6152;48.728;9.256;2024-01-11T01:57:56;98012.84;;;-5.30;100.00
12178;BME280;6152;48.728;9.256;2024-01-11T02:00:23;98019.63;;;-5.29;100.00
12178;BME280;6152;48.728;9.256;2024-01-11T02:02:51;98013.75;;;-5.27;100.00
12178;BME280;6152;48.728;9.256;2024-01-11T02:05:18;98017.09;;;-5.29;100.00
12178;BME280;6152;48.728;9.256;2024-01-11T02:07:45;98017.91;;;-5.32;100.00
12178;BME280;6152;48.728;9.256;2024-01-11T02:10:11;98020.34;;;-5.36;100.00
12178;BME280;6152;48.728;9.256;2024-01-11T02:12:38;98016.09;;;-5.39;100.00
12178;BME280;6152;48.728;9.256;2024-01-11T02:15:05;98016.91;;;-5.41;100.00
12178;BME280;6152;48.728;9.256;2024-01-11T02:17:32;98010.09;;;-5.45;100.00
12178;BME280;6152;48.728;9.256;2024-01-11T02:19:58;98013.47;;;-5.43;100.00
12178;BME280;6152;48.728;9.256;2024-01-11T02:22:32;98013.47;;;-5.43;100.00
12178;BME280;6152;48.728;9.256;2024-01-11T02:25:00;98016.84;;;-5.44;100.00
12178;BME280;6152;48.728;9.256;2024-01-11T02:27:26;98013.47;;;-5.43;100.00
12178;BME280;6152;48.728;9.256;2024-01-11T02:29:52;98016.84;;;-5.44;100.00
12178;BME280;6152;48.728;9.256;2024-01-11T02:32:18;98004.13;;;-5.47;100.00
12178;BME280;6152;48.728;9.256;2024-01-11T02:34:45;98009.97;;;-5.51;100.00
12178;BME280;6152;48.728;9.256;2024-01-11T02:37:11;98016.69;;;-5.53;100.00
12178;BME280;6152;48.728;9.256;2024-01-11T02:39:38;98012.47;;;-5.53;100.00
12178;BME280;6152;48.728;9.256;2024-01-11T02:42:05;98018.38;;;-5.54;100.00
12178;BME280;6152;48.728;9.256;2024-01-11T02:44:31;98023.47;;;-5.52;100.00
12178;BME280;6152;48.728;9.256;2024-01-11T02:46:57;98014.97;;;-5.54;100.00
12178;BME280;6152;48.728;9.256;2024-01-11T02:49:23;98022.53;;;-5.57;100.00
12178;BME280;6152;48.728;9.256;2024-01-11T02:51:50;98025.03;;;-5.61;100.00
12178;BME280;6152;48.728;9.256;2024-01-11T02:54:16;98026.69;;;-5.63;100.00
12178;BME280;6152;48.728;9.256;2024-01-11T02:56:42;98018.31;;;-5.58;100.00
12178;BME280;6152;48.728;9.256;2024-01-11T02:59:08;98010.59;;;-5.65;100.00
12178;BME280;6152;48.728;9.256;2024-01-11T03:01:34;98014.78;;;-5.67;100.00
12178;BME280;6152;48.728;9.256;2024-01-11T03:04:01;98007.94;;;-5.71;100.00
12178;BME280;6152;48.728;9.256;2024-01-11T03:06:27;98007.91;;;-5.72;100.00
12178;BME280;6152;48.728;9.256;2024-01-11T03:08:53;98005.38;;;-5.72;100.00
12178;BME280;6152;48.728;9.256;2024-01-11T03:11:19;98007.94;;;-5.71;100.00
12178;BME280;6152;48.728;9.256;2024-01-11T03:13:45;97998.66;;;-5.70;100.00
12178;BME280;6152;48.728;9.256;2024-01-11T03:16:11;97996.97;;;-5.71;100.00
12178;BME280;6152;48.728;9.256;2024-01-11T03:18:37;98002.84;;;-5.74;100.00
12178;BME280;6152;48.728;9.256;2024-01-11T03:21:04;98000.25;;;-5.75;100.00
12178;BME280;6152;48.728;9.256;2024-01-11T03:23:30;97993.50;;;-5.76;100.00
12178;BME280;6152;48.728;9.256;2024-01-11T03:25:56;97988.41;;;-5.79;100.00
12178;BME280;6152;48.728;9.256;2024-01-11T03:28:22;97994.22;;;-5.83;100.00
12178;BME280;6152;48.728;9.256;2024-01-11T03:30:48;97995.03;;;-5.86;100.00
12178;BME280;6152;48.728;9.256;2024-01-11T03:33:14;97986.56;;;-5.88;100.00
12178;BME280;6152;48.728;9.256;2024-01-11T03:35:40;97989.97;;;-5.87;100.00
12178;BME280;6152;48.728;9.256;2024-01-11T03:38:07;97992.47;;;-5.89;100.00
12178;BME280;6152;48.728;9.256;2024-01-11T03:40:33;97978.09;;;-5.90;100.00
12178;BME280;6152;48.728;9.256;2024-01-11T03:42:59;97984.84;;;-5.89;100.00
12178;BME280;6152;48.728;9.256;2024-01-11T03:45:25;97987.38;;;-5.89;100.00
12178;BME280;6152;48.728;9.256;2024-01-11T03:47:51;97989.06;;;-5.91;100.00
12178;BME280;6152;48.728;9.256;2024-01-11T03:50:18;97988.16;;;-5.93;100.00
12178;BME280;6152;48.728;9.256;2024-01-11T03:52:45;97980.59;;;-5.91;100.00
12178;BME280;6152;48.728;9.256;2024-01-11T03:55:11;97978.91;;;-5.91;100.00
12178;BME280;6152;48.728;9.256;2024-01-11T03:57:37;97980.56;;;-5.93;100.00
12178;BME280;6152;48.728;9.256;2024-01-11T04:00:04;97980.63;;;-5.90;100.00
12178;BME280;6152;48.728;9.256;2024-01-11T04:02:32;97981.50;;;-5.88;100.00
12178;BME280;6152;48.728;9.256;2024-01-11T04:04:58;97973.84;;;-5.91;100.00
12178;BME280;6152;48.728;9.256;2024-01-11T04:07:24;97972.94;;;-5.93;100.00
12178;BME280;6152;48.728;9.256;2024-01-11T04:09:50;97975.56;;;-5.90;100.00
12178;BME280;6152;48.728;9.256;2024-01-11T04:12:16;97977.13;;;-5.96;100.00
12178;BME280;6152;48.728;9.256;2024-01-11T04:14:42;97978.78;;;-6.00;100.00
12178;BME280;6152;48.728;9.256;2024-01-11T04:17:08;97983.00;;;-5.99;100.00
12178;BME280;6152;48.728;9.256;2024-01-11T04:19:34;97978.78;;;-6.00;100.00
12178;BME280;6152;48.728;9.256;2024-01-11T04:22:00;97982.13;;;-5.99;100.00
12178;BME280;6152;48.728;9.256;2024-01-11T04:24:26;97986.38;;;-6.00;100.00
12178;BME280;6152;48.728;9.256;2024-01-11T04:26:52;97989.72;;;-5.99;100.00
12178;BME280;6152;48.728;9.256;2024-01-11T04:29:18;97985.53;;;-5.99;100.00
12178;BME280;6152;48.728;9.256;2024-01-11T04:31:44;97985.47;;;-6.02;100.00
12178;BME280;6152;48.728;9.256;2024-01-11T04:34:11;97982.13;;;-6.01;100.00
12178;BME280;6152;48.728;9.256;2024-01-11T04:36:40;97988.03;;;-6.00;100.00
12178;BME280;6152;48.728;9.256;2024-01-11T04:39:06;97980.44;;;-5.99;100.00
12178;BME280;6152;48.728;9.256;2024-01-11T04:41:35;97977.06;;;-6.01;100.00
12178;BME280;6152;48.728;9.256;2024-01-11T04:44:02;97976.16;;;-6.03;100.00
12178;BME280;6152;48.728;9.256;2024-01-11T04:46:29;97979.59;;;-6.01;100.00
12178;BME280;6152;48.728;9.256;2024-01-11T04:48:55;97978.72;;;-6.01;100.00
12178;BME280;6152;48.728;9.256;2024-01-11T04:51:21;97976.16;;;-6.04;100.00
12178;BME280;6152;48.728;9.256;2024-01-11T04:53:47;97977.78;;;-6.06;100.00
12178;BME280;6152;48.728;9.256;2024-01-11T04:56:17;97974.41;;;-6.07;100.00
12178;BME280;6152;48.728;9.256;2024-01-11T04:58:44;97970.16;;;-6.08;100.00
12178;BME280;6152;48.728;9.256;2024-01-11T05:01:15;97978.59;;;-6.09;100.00
12178;BME280;6152;48.728;9.256;2024-01-11T05:03:45;97973.50;;;-6.09;100.00
12178;BME280;6152;48.728;9.256;2024-01-11T05:06:19;97970.13;;;-6.11;100.00
12178;BME280;6152;48.728;9.256;2024-01-11T05:08:49;97975.13;;;-6.14;100.00
12178;BME280;6152;48.728;9.256;2024-01-11T05:11:18;97979.28;;;-6.16;100.00
12178;BME280;6152;48.728;9.256;2024-01-11T05:13:45;97980.97;;;-6.18;100.00
12178;BME280;6152;48.728;9.256;2024-01-11T05:16:20;97980.19;;;-6.14;100.00
12178;BME280;6152;48.728;9.256;2024-01-11T05:18:47;97986.91;;;-6.16;100.00
12178;BME280;6152;48.728;9.256;2024-01-11T05:21:13;97987.81;;;-6.13;100.00
12178;BME280;6152;48.728;9.256;2024-01-11T05:23:40;97992.81;;;-6.16;100.00
12178;BME280;6152;48.728;9.256;2024-01-11T05:26:08;97986.84;;;-6.19;100.00
12178;BME280;6152;48.728;9.256;2024-01-11T05:28:34;97987.75;;;-6.17;100.00
12178;BME280;6152;48.728;9.256;2024-01-11T05:31:00;98002.16;;;-6.13;100.00
12178;BME280;6152;48.728;9.256;2024-01-11T05:33:26;98000.50;;;-6.11;100.00
12178;BME280;6152;48.728;9.256;2024-01-11T05:35:53;97997.94;;;-6.13;100.00
12178;BME280;6152;48.728;9.256;2024-01-11T05:38:19;98005.56;;;-6.11;100.00
12178;BME280;6152;48.728;9.256;2024-01-11T05:40:46;98007.22;;;-6.13;100.00
12178;BME280;6152;48.728;9.256;2024-01-11T05:43:12;98002.09;;;-6.16;100.00
12178;BME280;6152;48.728;9.256;2024-01-11T05:45:38;98008.00;;;-6.16;100.00
12178;BME280;6152;48.728;9.256;2024-01-11T05:48:04;98022.34;;;-6.16;100.00
12178;BME280;6152;48.728;9.256;2024-01-11T05:50:31;98029.94;;;-6.18;100.00
12178;BME280;6152;48.728;9.256;2024-01-11T05:52:58;98028.22;;;-6.19;100.00
12178;BME280;6152;48.728;9.256;2024-01-11T05:55:24;98034.09;;;-6.21;100.00
12178;BME280;6152;48.728;9.256;2024-01-11T05:57:50;98036.56;;;-6.24;100.00
12178;BME280;6152;48.728;9.256;2024-01-11T06:00:16;98038.94;;;-6.30;100.00
12178;BME280;6152;48.728;9.256;2024-01-11T06:02:42;98038.94;;;-6.30;100.00
12178;BME280;6152;48.728;9.256;2024-01-11T06:05:09;98036.34;;;-6.35;100.00
12178;BME280;6152;48.728;9.256;2024-01-11T06:07:35;98043.16;;;-6.32;100.00
12178;BME280;6152;48.728;9.256;2024-01-11T06:10:02;98046.44;;;-6.36;100.00
12178;BME280;6152;48.728;9.256;2024-01-11T06:12:29;98043.94;;;-6.35;100.00
12178;BME280;6152;48.728;9.256;2024-01-11T06:14:55;98035.44;;;-6.37;100.00
12178;BME280;6152;48.728;9.256;2024-01-11T06:17:21;98046.41;;;-6.38;100.00
12178;BME280;6152;48.728;9.256;2024-01-11T06:19:47;98053.09;;;-6.40;100.00
12178;BME280;6152;48.728;9.256;2024-01-11T06:22:13;98053.97;;;-6.39;100.00
12178;BME280;6152;48.728;9.256;2024-01-11T06:24:39;98044.72;;;-6.37;100.00
12178;BME280;6152;48.728;9.256;2024-01-11T06:27:05;98045.63;;;-6.35;100.00
12178;BME280;6152;48.728;9.256;2024-01-11T06:29:32;98042.22;;;-6.36;100.00
12178;BME280;6152;48.728;9.256;2024-01-11T06:31:58;98039.66;;;-6.37;100.00
12178;BME280;6152;48.728;9.256;2024-01-11T06:34:24;98035.38;;;-6.40;100.00
12178;BME280;6152;48.728;9.256;2024-01-11T06:36:50;98051.47;;;-6.38;100.00
12178;BME280;6152;48.728;9.256;2024-01-11T06:39:16;98048.09;;;-6.38;100.00
12178;BME280;6152;48.728;9.256;2024-01-11T06:41:42;98043.84;;;-6.39;100.00
12178;BME280;6152;48.728;9.256;2024-01-11T06:44:09;98042.91;;;-6.43;100.00
12178;BME280;6152;48.728;9.256;2024-01-11T06:46:35;98042.97;;;-6.41;100.00
12178;BME280;6152;48.728;9.256;2024-01-11T06:49:02;98047.13;;;-6.43;100.00
12178;BME280;6152;48.728;9.256;2024-01-11T06:51:28;98044.53;;;-6.46;100.00
12178;BME280;6152;48.728;9.256;2024-01-11T06:53:54;98047.94;;;-6.44;100.00
12178;BME280;6152;48.728;9.256;2024-01-11T06:56:20;98048.78;;;-6.45;100.00
12178;BME280;6152;48.728;9.256;2024-01-11T06:58:49;98053.81;;;-6.47;100.00
12178;BME280;6152;48.728;9.256;2024-01-11T07:01:16;98055.41;;;-6.50;100.00
12178;BME280;6152;48.728;9.256;2024-01-11T07:03:43;98061.34;;;-6.50;100.00
12178;BME280;6152;48.728;9.256;2024-01-11T07:06:10;98067.25;;;-6.49;100.00
12178;BME280;6152;48.728;9.256;2024-01-11T07:08:36;98063.06;;;-6.47;100.00
12178;BME280;6152;48.728;9.256;2024-01-11T07:11:02;98068.25;;;-6.43;100.00
12178;BME280;6152;48.728;9.256;2024-01-11T07:13:29;98075.78;;;-6.44;100.00
12178;BME280;6152;48.728;9.256;2024-01-11T07:15:57;98079.22;;;-6.42;100.00
12178;BME280;6152;48.728;9.256;2024-01-11T07:18:24;98083.38;;;-6.44;100.00
12178;BME280;6152;48.728;9.256;2024-01-11T07:20:51;98088.53;;;-6.41;100.00
12178;BME280;6152;48.728;9.256;2024-01-11T07:23:18;98088.56;;;-6.40;100.00
12178;BME280;6152;48.728;9.256;2024-01-11T07:25:44;98086.88;;;-6.39;100.00
12178;BME280;6152;48.728;9.256;2024-01-11T07:28:10;98081.88;;;-6.38;100.00
12178;BME280;6152;48.728;9.256;2024-01-11T07:30:36;98081.06;;;-6.35;100.00
12178;BME280;6152;48.728;9.256;2024-01-11T07:33:03;98076.91;;;-6.32;100.00
12178;BME280;6152;48.728;9.256;2024-01-11T07:35:30;98073.53;;;-6.32;100.00
12178;BME280;6152;48.728;9.256;2024-01-11T07:37:57;98062.59;;;-6.31;100.00
12178;BME280;6152;48.728;9.256;2024-01-11T07:40:23;98080.31;;;-6.30;100.00
12178;BME280;6152;48.728;9.256;2024-01-11T07:42:49;98092.16;;;-6.29;100.00
12178;BME280;6152;48.728;9.256;2024-01-11T07:45:15;98095.63;;;-6.24;100.00
12178;BME280;6152;48.728;9.256;2024-01-11T07:47:42;98110.97;;;-6.18;100.00
12178;BME280;6152;48.728;9.256;2024-01-11T07:50:08;98110.25;;;-6.12;100.00
12178;BME280;6152;48.728;9.256;2024-01-11T07:52:38;98102.75;;;-6.06;100.00
12178;BME280;6152;48.728;9.256;2024-01-11T07:55:07;98103.72;;;-5.99;100.00
12178;BME280;6152;48.728;9.256;2024-01-11T07:57:34;98109.00;;;-5.89;100.00
12178;BME280;6152;48.728;9.256;2024-01-11T08:00:01;98111.59;;;-5.86;100.00
12178;BME280;6152;48.728;9.256;2024-01-11T08:02:29;98126.88;;;-5.81;100.00
12178;BME280;6152;48.728;9.256;2024-01-11T08:04:55;98127.03;;;-5.74;100.00
12178;BME280;6152;48.728;9.256;2024-01-11T08:07:21;98127.22;;;-5.63;100.00
12178;BME280;6152;48.728;9.256;2024-01-11T08:09:48;98132.56;;;-5.49;100.00
12178;BME280;6152;48.728;9.256;2024-01-11T08:12:14;98136.16;;;-5.37;100.00
12178;BME280;6152;48.728;9.256;2024-01-11T08:14:40;98152.53;;;-5.21;100.00
12178;BME280;6152;48.728;9.256;2024-01-11T08:17:10;98156.06;;;-5.10;100.00
12178;BME280;6152;48.728;9.256;2024-01-11T08:19:37;98151.19;;;-4.99;100.00
12178;BME280;6152;48.728;9.256;2024-01-11T08:22:04;98136.13;;;-4.89;100.00
12178;BME280;6152;48.728;9.256;2024-01-11T08:24:30;98148.66;;;-4.99;100.00
12178;BME280;6152;48.728;9.256;2024-01-11T08:26:56;98157.22;;;-4.93;100.00
12178;BME280;6152;48.728;9.256;2024-01-11T08:29:23;98155.34;;;-5.03;100.00
12178;BME280;6152;48.728;9.256;2024-01-11T08:31:50;98158.75;;;-5.04;100.00
12178;BME280;6152;48.728;9.256;2024-01-11T08:34:16;98160.59;;;-4.94;100.00
12178;BME280;6152;48.728;9.256;2024-01-11T08:36:42;98162.47;;;-4.82;100.00
12178;BME280;6152;48.728;9.256;2024-01-11T08:39:08;98158.47;;;-4.70;100.00
12178;BME280;6152;48.728;9.256;2024-01-11T08:41:37;98161.81;;;-4.71;100.00
12178;BME280;6152;48.728;9.256;2024-01-11T08:44:06;98160.88;;;-4.77;100.00
12178;BME280;6152;48.728;9.256;2024-01-11T08:46:32;98165.09;;;-4.78;100.00
12178;BME280;6152;48.728;9.256;2024-01-11T08:49:00;98163.63;;;-4.64;100.00
12178;BME280;6152;48.728;9.256;2024-01-11T08:51:26;98167.16;;;-4.55;100.00
12178;BME280;6152;48.728;9.256;2024-01-11T08:53:52;98167.94;;;-4.60;100.00
12178;BME280;6152;48.728;9.256;2024-01-11T08:56:21;98171.50;;;-4.48;100.00
12178;BME280;6152;48.728;9.256;2024-01-11T08:58:48;98173.50;;;-4.28;100.00
12178;BME280;6152;48.728;9.256;2024-01-11T09:01:15;98160.09;;;-4.18;100.00
12178;BME280;6152;48.728;9.256;2024-01-11T09:03:41;98159.38;;;-4.06;100.00
12178;BME280;6152;48.728;9.256;2024-01-11T09:06:07;98153.81;;;-3.79;100.00
12178;BME280;6152;48.728;9.256;2024-01-11T09:08:33;98160.06;;;-3.53;100.00
12178;BME280;6152;48.728;9.256;2024-01-11T09:11:00;98149.31;;;-3.26;100.00
12178;BME280;6152;48.728;9.256;2024-01-11T09:13:27;98164.03;;;-2.98;100.00
12178;BME280;6152;48.728;9.256;2024-01-11T09:15:54;98164.16;;;-2.83;100.00
12178;BME280;6152;48.728;9.256;2024-01-11T09:18:21;98174.66;;;-2.46;100.00
12178;BME280;6152;48.728;9.256;2024-01-11T09:20:48;98173.13;;;-2.20;100.00
12178;BME280;6152;48.728;9.256;2024-01-11T09:23:15;98178.47;;;-1.81;100.00
12178;BME280;6152;48.728;9.256;2024-01-11T09:25:41;98170.09;;;-1.49;100.00
12178;BME280;6152;48.728;9.256;2024-01-11T09:28:08;98151.44;;;-1.20;100.00
12178;BME280;6152;48.728;9.256;2024-01-11T09:30:34;98146.41;;;-0.94;100.00
12178;BME280;6152;48.728;9.256;2024-01-11T09:33:00;98166.00;;;-0.67;100.00
12178;BME280;6152;48.728;9.256;2024-01-11T09:35:26;98171.09;;;-0.34;100.00
12178;BME280;6152;48.728;9.256;2024-01-11T09:37:52;98177.00;;;0.12;100.00
12178;BME280;6152;48.728;9.256;2024-01-11T09:40:19;98176.97;;;0.30;100.00
12178;BME280;6152;48.728;9.256;2024-01-11T09:42:45;98163.22;;;0.52;100.00
12178;BME280;6152;48.728;9.256;2024-01-11T09:45:15;98170.69;;;0.98;100.00
12178;BME280;6152;48.728;9.256;2024-01-11T09:47:43;98171.44;;;1.14;100.00
12178;BME280;6152;48.728;9.256;2024-01-11T09:50:11;98184.16;;;1.26;100.00
12178;BME280;6152;48.728;9.256;2024-01-11T09:52:46;98181.91;;;1.96;100.00
12178;BME280;6152;48.728;9.256;2024-01-11T09:55:16;98179.22;;;2.05;100.00
12178;BME280;6152;48.728;9.256;2024-01-11T09:57:45;98175.13;;;2.67;100.00
12178;BME280;6152;48.728;9.256;2024-01-11T10:00:22;98168.16;;;3.36;94.84
12178;BME280;6152;48.728;9.256;2024-01-11T10:02:48;98173.06;;;4.03;81.26
12178;BME280;6152;48.728;9.256;2024-01-11T10:05:15;98166.22;;;4.88;78.70
12178;BME280;6152;48.728;9.256;2024-01-11T10:07:42;98163.09;;;5.50;63.72
12178;BME280;6152;48.728;9.256;2024-01-11T10:10:09;98159.50;;;6.25;60.11
12178;BME280;6152;48.728;9.256;2024-01-11T10:12:38;98154.31;;;5.57;57.58
12178;BME280;6152;48.728;9.256;2024-01-11T10:15:08;98158.28;;;5.35;55.64
12178;BME280;6152;48.728;9.256;2024-01-11T10:17:44;98149.34;;;6.79;55.79
12178;BME280;6152;48.728;9.256;2024-01-11T10:20:14;98132.16;;;7.61;51.14
12178;BME280;6152;48.728;9.256;2024-01-11T10:22:41;98131.47;;;7.01;49.30
12178;BME280;6152;48.728;9.256;2024-01-11T10:25:12;98126.84;;;7.38;51.06
12178;BME280;6152;48.728;9.256;2024-01-11T10:27:42;98127.78;;;8.62;46.99
12178;BME280;6152;48.728;9.256;2024-01-11T10:30:10;98124.41;;;8.60;46.89
12178;BME280;6152;48.728;9.256;2024-01-11T10:32:39;98115.09;;;9.23;45.32
12178;BME280;6152;48.728;9.256;2024-01-11T10:35:05;98110.91;;;9.83;44.05
12178;BME280;6152;48.728;9.256;2024-01-11T10:37:32;98106.53;;;10.64;42.63
12178;BME280;6152;48.728;9.256;2024-01-11T10:40:02;98107.88;;;10.73;41.30
12178;BME280;6152;48.728;9.256;2024-01-11T10:42:31;98108.88;;;10.89;40.49
12178;BME280;6152;48.728;9.256;2024-01-11T10:45:02;98102.44;;;11.33;40.01
12178;BME280;6152;48.728;9.256;2024-01-11T10:47:31;98101.66;;;11.67;39.34
12178;BME280;6152;48.728;9.256;2024-01-11T10:50:02;98103.75;;;12.12;38.40
12178;BME280;6152;48.728;9.256;2024-01-11T10:52:36;98116.81;;;11.78;37.90
12178;BME280;6152;48.728;9.256;2024-01-11T10:55:02;98110.66;;;12.13;38.19
12178;BME280;6152;48.728;9.256;2024-01-11T10:57:30;98112.78;;;12.39;37.32
12178;BME280;6152;48.728;9.256;2024-01-11T10:59:57;98119.78;;;12.72;36.52
12178;BME280;6152;48.728;9.256;2024-01-11T11:02:25;98123.25;;;12.55;35.84
12178;BME280;6152;48.728;9.256;2024-01-11T11:04:53;98123.31;;;12.03;35.92
12178;BME280;6152;48.728;9.256;2024-01-11T11:07:20;98116.81;;;11.95;37.02
12178;BME280;6152;48.728;9.256;2024-01-11T11:09:47;98111.13;;;12.04;36.80
12178;BME280;6152;48.728;9.256;2024-01-11T11:12:15;98109.03;;;11.93;36.22
12178;BME280;6152;48.728;9.256;2024-01-11T11:14:42;98117.41;;;12.17;36.58
12178;BME280;6152;48.728;9.256;2024-01-11T11:17:10;98117.41;;;12.00;36.59
12178;BME280;6152;48.728;9.256;2024-01-11T11:19:36;98119.31;;;11.96;35.82
12178;BME280;6152;48.728;9.256;2024-01-11T11:22:04;98116.06;;;12.10;36.30
12178;BME280;6152;48.728;9.256;2024-01-11T11:24:33;98107.06;;;12.48;35.84
12178;BME280;6152;48.728;9.256;2024-01-11T11:26:59;98112.16;;;12.51;35.66
12178;BME280;6152;48.728;9.256;2024-01-11T11:29:26;98104.63;;;12.45;35.13
12178;BME280;6152;48.728;9.256;2024-01-11T11:31:52;98098.88;;;12.72;35.41
12178;BME280;6152;48.728;9.256;2024-01-11T11:34:41;98099.28;;;13.28;35.03
12178;BME280;6152;48.728;9.256;2024-01-11T11:37:09;98100.13;;;14.04;33.83
12178;BME280;6152;48.728;9.256;2024-01-11T11:39:36;98104.13;;;13.95;33.32
12178;BME280;6152;48.728;9.256;2024-01-11T11:42:03;98112.75;;;13.21;33.71
12178;BME280;6152;48.728;9.256;2024-01-11T11:44:30;98107.34;;;13.08;34.70
12178;BME280;6152;48.728;9.256;2024-01-11T11:47:20;98096.91;;;13.39;34.41
12178;BME280;6152;48.728;9.256;2024-01-11T11:50:07;98082.22;;;13.82;34.38
12178;BME280;6152;48.728;9.256;2024-01-11T11:52:42;98087.25;;;13.71;33.85
12178;BME280;6152;48.728;9.256;2024-01-11T11:55:09;98088.00;;;14.31;32.93
12178;BME280;6152;48.728;9.256;2024-01-11T11:57:35;98080.44;;;14.27;32.46
12178;BME280;6152;48.728;9.256;2024-01-11T12:00:03;98078.03;;;15.35;31.95
12178;BME280;6152;48.728;9.256;2024-01-11T12:02:33;98080.31;;;15.81;30.48
12178;BME280;6152;48.728;9.256;2024-01-11T12:05:02;98065.69;;;15.77;30.33
12178;BME280;6152;48.728;9.256;2024-01-11T12:07:30;98076.94;;;14.70;30.81
12178;BME280;6152;48.728;9.256;2024-01-11T12:09:56;98068.47;;;14.23;32.11
12178;BME280;6152;48.728;9.256;2024-01-11T12:12:23;98049.59;;;13.74;32.50
12178;BME280;6152;48.728;9.256;2024-01-11T12:14:49;98041.22;;;14.41;31.88
12178;BME280;6152;48.728;9.256;2024-01-11T12:17:16;98030.56;;;14.99;31.40
12178;BME280;6152;48.728;9.256;2024-01-11T12:19:42;98043.19;;;14.37;31.16
12178;BME280;6152;48.728;9.256;2024-01-11T12:22:08;98045.66;;;14.95;30.96
12178;BME280;6152;48.728;9.256;2024-01-11T12:24:34;98025.53;;;15.49;30.21
12178;BME280;6152;48.728;9.256;2024-01-11T12:27:01;98032.69;;;15.33;30.44
12178;BME280;6152;48.728;9.256;2024-01-11T12:29:30;98039.53;;;15.09;30.65
12178;BME280;6152;48.728;9.256;2024-01-11T12:31:57;98030.78;;;14.25;31.73
12178;BME280;6152;48.728;9.256;2024-01-11T12:34:27;98036.59;;;15.13;31.03
12178;BME280;6152;48.728;9.256;2024-01-11T12:36:54;98039.50;;;15.50;30.33
12178;BME280;6152;48.728;9.256;2024-01-11T12:39:24;98035.66;;;15.14;30.70
12178;BME280;6152;48.728;9.256;2024-01-11T12:41:52;98034.31;;;15.75;29.92
12178;BME280;6152;48.728;9.256;2024-01-11T12:44:20;98034.72;;;14.75;30.56
12178;BME280;6152;48.728;9.256;2024-01-11T12:46:50;98029.03;;;15.62;30.11
12178;BME280;6152;48.728;9.256;2024-01-11T12:49:16;98033.44;;;14.68;30.49
12178;BME280;6152;48.728;9.256;2024-01-11T12:51:43;98030.78;;;14.25;30.61
12178;BME280;6152;48.728;9.256;2024-01-11T12:54:13;98025.16;;;14.31;31.29
12178;BME280;6152;48.728;9.256;2024-01-11T12:56:45;98028.50;;;13.47;31.81
12178;BME280;6152;48.728;9.256;2024-01-11T12:59:12;98029.59;;;13.43;31.91
12178;BME280;6152;48.728;9.256;2024-01-11T13:01:38;98020.84;;;12.65;32.92